»·PEaware :: N414 KBUR-KLAS

N414 :: KBUR-KLAS

FLIGHT INFORMATION

Flight Status: Arrived
Operator: Privately registered:
United States
More flights under this callsign
Pilot: Ahmed A. (2932)
Aircraft: BRITISH AERO BAe-125-700/800
(H25B)
More flights by this aircraft type
Origin: KBUR Bob Hope-Burbank
United States
Destination: KLAS McCarran Intl
United States
More flights between these airports :: More routes between these airports
Route: +VNY3 DAG MISEN KEPEC6
File this flight plan on PilotEdge
Remarks: I-5 Rating
Altitude:
(Current/Filed)
27,000ft
Speed:
(Current/Filed)
280kts
Departed: 04-Dec-17 06:41 PM
Arrived: 04-Dec-17 07:21 PM
Distance/Time
Traveled:
194nm/0:40
Distance/Time
To Go:
Arrived

Flight Plot

Page will automatically refresh every two minutes.

Flight plan parsing failed; only flown route is shown


Map Options




Map Legend


Flown Route
Filed Route
Departure Airport
Arrival Airport
Navaid (VOR, NDB)
Fix

Horizontal Profiles

Position Reports

Time Latitude Longitude Heading Altitude Ground
Speed
04-Dec-17 18:03 34.196857 -118.352175 180 783ft 0kts
04-Dec-17 18:04 34.196857 -118.352175 180 783ft 0kts
04-Dec-17 18:05 34.196857 -118.352175 180 783ft 0kts
04-Dec-17 18:06 34.196857 -118.352175 180 783ft 0kts
04-Dec-17 18:07 34.196857 -118.352175 180 783ft 0kts
04-Dec-17 18:08 34.196857 -118.352175 180 783ft 0kts
04-Dec-17 18:09 34.196857 -118.352175 180 783ft 0kts
04-Dec-17 18:10 34.196857 -118.352175 180 783ft 0kts
04-Dec-17 18:11 34.196857 -118.352175 180 783ft 0kts
04-Dec-17 18:12 34.196857 -118.352175 180 783ft 0kts
04-Dec-17 18:13 34.196857 -118.352175 179 783ft 0kts
04-Dec-17 18:14 34.196857 -118.352175 180 783ft 0kts
04-Dec-17 18:15 34.196385 -118.355177 207 783ft 8kts
04-Dec-17 18:16 34.194860 -118.355156 264 783ft 0kts
04-Dec-17 18:17 34.194860 -118.355156 264 783ft 0kts
04-Dec-17 18:18 34.194860 -118.355156 264 783ft 0kts
04-Dec-17 18:19 34.194860 -118.355156 264 783ft 0kts
04-Dec-17 18:20 34.194860 -118.355157 264 783ft 0kts
04-Dec-17 18:21 34.195363 -118.354851 346 783ft 12kts
04-Dec-17 18:22 34.196989 -118.352234 156 783ft 10kts
04-Dec-17 18:23 34.196840 -118.352180 176 783ft 0kts
04-Dec-17 18:24 34.196840 -118.352180 176 783ft 0kts
04-Dec-17 18:25 34.196840 -118.352180 176 783ft 0kts
04-Dec-17 18:34 34.196857 -118.352175 180 783ft 0kts
04-Dec-17 18:35 34.196857 -118.352175 180 783ft 0kts
04-Dec-17 18:36 34.196857 -118.352175 180 783ft 0kts
04-Dec-17 18:37 34.196857 -118.352175 180 783ft 0kts
04-Dec-17 18:38 34.196857 -118.352175 180 783ft 0kts
04-Dec-17 18:39 34.196857 -118.352175 180 783ft 0kts
04-Dec-17 18:40 34.196857 -118.352175 180 783ft 0kts
04-Dec-17 18:41 34.196857 -118.352175 180 783ft 0kts
04-Dec-17 18:42 34.196857 -118.352175 180 783ft 0kts
04-Dec-17 18:43 34.197142 -118.352563 269 783ft 13kts
04-Dec-17 18:44 34.194958 -118.355212 167 783ft 20kts
04-Dec-17 18:45 34.193957 -118.355025 235 783ft 0kts
04-Dec-17 18:46 34.216113 -118.361242 347 982ft 174kts
04-Dec-17 18:47 34.255608 -118.373977 317 3960ft 186kts
04-Dec-17 18:48 34.277506 -118.448637 280 5529ft 294kts
04-Dec-17 18:49 34.291815 -118.551897 277 6942ft 303kts
04-Dec-17 18:50 34.314834 -118.645059 317 8324ft 295kts
04-Dec-17 18:51 34.389421 -118.625037 39 9724ft 306kts
04-Dec-17 18:52 34.434875 -118.542841 93 11114ft 304kts
04-Dec-17 18:53 34.428453 -118.442293 73 12506ft 299kts
04-Dec-17 18:54 34.472616 -118.345861 61 14730ft 355kts
04-Dec-17 18:55 34.524699 -118.234265 52 17255ft 404kts
04-Dec-17 18:56 34.592805 -118.120342 51 20388ft 426kts
04-Dec-17 18:57 34.660968 -118.001919 65 23867ft 428kts
04-Dec-17 18:58 34.657910 -117.860632 90 26943ft 422kts
04-Dec-17 18:59 34.677558 -117.710531 71 27003ft 479kts
04-Dec-17 19:00 34.718875 -117.549845 71 27001ft 510kts
04-Dec-17 19:01 34.761157 -117.383744 71 26999ft 514kts
04-Dec-17 19:02 34.803061 -117.218084 72 27000ft 514kts
04-Dec-17 19:03 34.845054 -117.050997 72 27000ft 516kts
04-Dec-17 19:04 34.886758 -116.883977 72 27000ft 516kts
04-Dec-17 19:05 34.928415 -116.716052 72 27000ft 517kts
04-Dec-17 19:06 34.979676 -116.556815 50 26456ft 480kts
04-Dec-17 19:07 35.066831 -116.447633 42 24085ft 409kts
04-Dec-17 19:08 35.125959 -116.347265 79 23997ft 358kts
04-Dec-17 19:09 35.187963 -116.261101 15 22920ft 369kts
04-Dec-17 19:10 35.272708 -116.189906 41 21321ft 376kts
04-Dec-17 19:11 35.346292 -116.097609 42 19452ft 381kts
04-Dec-17 19:12 35.420417 -116.003972 43 17456ft 384kts
04-Dec-17 19:13 35.494861 -115.909701 44 15461ft 385kts
04-Dec-17 19:14 35.569473 -115.814953 45 13458ft 384kts
04-Dec-17 19:15 35.642013 -115.722587 46 12997ft 356kts
04-Dec-17 19:16 35.707531 -115.638920 45 12998ft 325kts
04-Dec-17 19:17 35.749761 -115.541985 79 11967ft 350kts
04-Dec-17 19:18 35.766520 -115.425113 82 9969ft 318kts
04-Dec-17 19:19 35.780726 -115.326055 82 7960ft 274kts
04-Dec-17 19:20 35.814621 -115.256501 17 6338ft 239kts
04-Dec-17 19:21 35.877347 -115.244639 2 5073ft 209kts
04-Dec-17 19:22 35.926874 -115.252404 6 4995ft 163kts
04-Dec-17 19:23 35.971043 -115.231343 27 4838ft 186kts
04-Dec-17 19:24 36.019886 -115.201824 22 3635ft 200kts
04-Dec-17 19:25 36.069053 -115.173716 23 2466ft 186kts
04-Dec-17 19:26 36.097791 -115.157509 21 2186ft 22kts
04-Dec-17 19:27 36.098919 -115.157624 297 2186ft 0kts
04-Dec-17 19:28 36.098674 -115.160377 287 2186ft 11kts
04-Dec-17 19:29 36.098959 -115.161159 314 2186ft 0kts

Navigation Log

Ident Type
Flight plan parsing failed, navigation log unavailable